Time;durP1;ratioP1;P1;durP2;ratioP2;P2;SDS_P1;SDS_P2;PMS_P1;PMS_P2;Temp;Humidity;BMP_temperature;BMP_pressure;BME280_temperature;BME280_humidity;BME280_pressure;Samples;Min_cycle;Max_cycle;Signal;HPM_P1;HPM_P2
2022/05/17 00:00:14;;;;;;;4.77;4.37;;;27.00;46.20;;;;;;5064949;28;20464;-81
2022/05/17 00:02:44;;;;;;;4.40;4.10;;;27.00;46.10;;;;;;5065574;28;20438;-84
2022/05/17 00:05:13;;;;;;;4.67;4.37;;;27.00;46.10;;;;;;5065553;28;20449;-83
2022/05/17 00:07:43;;;;;;;5.13;4.33;;;27.00;46.10;;;;;;5057863;28;20480;-82
2022/05/17 00:10:11;;;;;;;4.73;4.40;;;26.90;46.10;;;;;;5064551;28;20456;-82
2022/05/17 00:12:39;;;;;;;4.23;3.93;;;26.90;46.10;;;;;;5064928;28;20450;-82
2022/05/17 00:15:08;;;;;;;5.30;4.80;;;26.90;46.00;;;;;;5064810;28;20432;-82
2022/05/17 00:17:36;;;;;;;4.70;4.30;;;26.90;46.10;;;;;;5064414;28;20474;-82
2022/05/17 00:20:05;;;;;;;5.13;4.30;;;26.90;46.10;;;;;;5063643;28;20478;-82
2022/05/17 00:22:33;;;;;;;5.20;4.80;;;26.90;46.00;;;;;;5060435;28;20455;-81
2022/05/17 00:25:03;;;;;;;4.33;3.93;;;26.90;46.00;;;;;;5062267;28;20466;-82
2022/05/17 00:27:31;;;;;;;6.87;4.37;;;26.90;46.10;;;;;;5062455;28;20482;-82
2022/05/17 00:29:59;;;;;;;5.97;4.40;;;26.80;46.00;;;;;;5063605;28;20464;-83
2022/05/17 00:32:27;;;;;;;4.10;3.90;;;26.80;46.00;;;;;;5063820;28;20421;-82
2022/05/17 00:34:55;;;;;;;4.70;4.30;;;26.80;46.00;;;;;;5062384;28;20967;-82
2022/05/17 00:37:23;;;;;;;4.67;4.20;;;26.80;46.00;;;;;;5062431;28;20466;-82
2022/05/17 00:39:51;;;;;;;4.77;4.47;;;26.80;46.10;;;;;;5059447;28;20471;-82
2022/05/17 00:42:21;;;;;;;4.77;4.37;;;26.80;46.10;;;;;;5063482;28;20585;-83
2022/05/17 00:44:52;;;;;;;5.20;4.10;;;26.70;46.10;;;;;;5063088;28;20454;-82
2022/05/17 00:47:24;;;;;;;4.37;4.17;;;26.80;46.20;;;;;;5062433;28;20509;-82
2022/05/17 00:49:54;;;;;;;4.07;3.87;;;26.70;46.10;;;;;;5063456;28;20478;-82
2022/05/17 00:52:24;;;;;;;4.37;4.07;;;26.70;46.10;;;;;;5064887;28;20421;-83
2022/05/17 00:54:53;;;;;;;4.50;4.17;;;26.70;46.10;;;;;;5065510;28;20457;-82
2022/05/17 00:57:28;;;;;;;4.80;4.40;;;26.70;46.00;;;;;;5061150;28;20452;-82
2022/05/17 00:59:56;;;;;;;4.43;4.13;;;26.70;46.10;;;;;;5062945;28;20432;-82
2022/05/17 01:02:24;;;;;;;4.50;4.17;;;26.70;46.20;;;;;;5062864;28;20447;-82
2022/05/17 01:04:52;;;;;;;4.20;3.90;;;26.70;46.10;;;;;;5063288;28;20446;-82
2022/05/17 01:07:22;;;;;;;5.00;4.60;;;26.60;46.10;;;;;;5062229;28;20481;-82
2022/05/17 01:09:50;;;;;;;4.73;4.40;;;26.60;46.10;;;;;;5062562;28;20433;-83
2022/05/17 01:12:18;;;;;;;4.40;4.03;;;26.60;46.10;;;;;;5058877;28;20429;-82
2022/05/17 01:14:58;;;;;;;4.07;3.87;;;26.60;46.10;;;;;;5062082;28;20447;-82
2022/05/17 01:17:27;;;;;;;4.87;4.47;;;26.60;46.20;;;;;;5062870;28;20452;-83
2022/05/17 01:19:55;;;;;;;4.53;4.20;;;26.50;46.20;;;;;;5062950;28;20470;-82
2022/05/17 01:22:24;;;;;;;4.23;3.93;;;26.50;46.20;;;;;;5061743;28;20900;-82
2022/05/17 01:24:52;;;;;;;4.00;3.70;;;26.50;46.30;;;;;;5061324;28;20417;-82
2022/05/17 01:27:22;;;;;;;4.60;4.30;;;26.50;46.20;;;;;;5061446;28;20475;-82
2022/05/17 01:29:50;;;;;;;4.23;4.03;;;26.50;46.30;;;;;;5059667;28;20498;-82
2022/05/17 01:32:18;;;;;;;4.50;4.23;;;26.40;46.20;;;;;;5063176;28;20904;-82
2022/05/17 01:34:46;;;;;;;4.40;3.80;;;26.40;46.20;;;;;;5062333;28;20446;-82
2022/05/17 01:37:14;;;;;;;6.57;4.23;;;26.40;46.20;;;;;;5062957;28;20474;-83
2022/05/17 01:39:44;;;;;;;4.60;4.30;;;26.40;46.20;;;;;;5068818;28;20993;-83
2022/05/17 01:42:13;;;;;;;4.60;4.30;;;26.40;46.10;;;;;;5069890;28;20441;-83
2022/05/17 01:44:43;;;;;;;4.80;4.50;;;26.40;46.10;;;;;;5067307;28;20446;-83
2022/05/17 01:47:11;;;;;;;4.37;4.17;;;26.40;46.10;;;;;;5066034;28;20476;-82
2022/05/17 01:49:39;;;;;;;4.47;4.17;;;26.40;46.10;;;;;;5066070;28;20445;-83
2022/05/17 01:52:08;;;;;;;4.80;4.50;;;26.40;46.20;;;;;;5065298;28;20516;-82
2022/05/17 01:54:36;;;;;;;4.67;4.40;;;26.40;46.20;;;;;;5066935;28;20507;-82
2022/05/17 01:57:06;;;;;;;4.60;4.30;;;26.30;46.10;;;;;;5064786;28;20545;-83
2022/05/17 01:59:34;;;;;;;4.30;4.00;;;26.30;46.20;;;;;;5065666;28;20509;-82
2022/05/17 02:02:03;;;;;;;5.17;4.77;;;26.30;46.20;;;;;;5061557;28;20920;-82
2022/05/17 02:04:31;;;;;;;4.30;4.10;;;26.20;46.20;;;;;;5060183;28;20999;-82
2022/05/17 02:06:59;;;;;;;4.37;4.07;;;26.20;46.30;;;;;;5046363;28;20458;-83
2022/05/17 02:09:27;;;;;;;4.53;4.23;;;26.20;46.30;;;;;;5046211;28;20467;-83
2022/05/17 02:11:55;;;;;;;4.67;4.37;;;26.20;46.30;;;;;;5046340;28;20451;-83
2022/05/17 02:14:24;;;;;;;4.80;4.40;;;26.10;46.20;;;;;;5045549;28;20445;-83
2022/05/17 02:16:52;;;;;;;6.30;4.20;;;26.10;46.30;;;;;;5045269;28;20418;-83
2022/05/17 02:19:22;;;;;;;4.50;4.20;;;26.10;46.40;;;;;;5044704;28;20422;-82
2022/05/17 02:21:50;;;;;;;4.93;4.50;;;26.10;46.40;;;;;;5064233;28;20484;-83
2022/05/17 02:24:18;;;;;;;4.90;4.50;;;26.00;46.40;;;;;;5064121;28;20425;-83
2022/05/17 02:26:46;;;;;;;4.87;4.50;;;26.00;46.30;;;;;;5065182;28;20439;-83
2022/05/17 02:29:14;;;;;;;5.13;4.70;;;26.00;46.30;;;;;;5063629;28;20515;-83
2022/05/17 02:31:44;;;;;;;4.60;4.30;;;26.00;46.40;;;;;;5064199;28;20466;-83
2022/05/17 02:34:11;;;;;;;4.60;4.20;;;26.00;46.40;;;;;;5064048;28;20448;-83
2022/05/17 02:36:39;;;;;;;4.70;4.40;;;26.00;46.30;;;;;;5063126;28;20448;-82
2022/05/17 02:39:07;;;;;;;4.80;4.40;;;26.00;46.30;;;;;;5058201;28;20452;-83
2022/05/17 02:41:36;;;;;;;4.53;4.33;;;26.00;46.30;;;;;;5063245;28;20465;-82
2022/05/17 02:44:04;;;;;;;4.90;4.50;;;26.00;46.20;;;;;;5063296;28;20958;-82
2022/05/17 02:46:33;;;;;;;4.53;4.30;;;25.90;46.20;;;;;;5063240;28;20430;-82
2022/05/17 02:49:04;;;;;;;4.57;4.27;;;26.00;46.10;;;;;;5063416;28;20488;-82
2022/05/17 02:51:34;;;;;;;4.43;4.13;;;26.00;46.20;;;;;;5062662;28;20429;-82
2022/05/17 02:54:05;;;;;;;4.87;4.50;;;25.90;46.10;;;;;;5059563;28;20433;-82
2022/05/17 02:56:33;;;;;;;4.40;4.10;;;25.90;46.20;;;;;;5064017;28;20438;-82
2022/05/17 02:59:01;;;;;;;4.90;4.40;;;25.90;46.20;;;;;;5063621;28;20444;-83
2022/05/17 03:01:29;;;;;;;4.63;4.33;;;25.80;46.10;;;;;;5063574;28;20537;-83
2022/05/17 03:03:57;;;;;;;4.73;4.33;;;25.80;46.20;;;;;;5063839;28;20424;-83
2022/05/17 03:06:27;;;;;;;4.57;4.17;;;25.80;46.20;;;;;;5063231;28;20450;-83
2022/05/17 03:08:55;;;;;;;4.77;4.37;;;25.80;46.20;;;;;;5062452;28;20509;-82
2022/05/17 03:11:23;;;;;;;4.90;4.50;;;25.80;46.20;;;;;;5057621;28;20486;-82
2022/05/17 03:13:51;;;;;;;4.87;4.47;;;25.80;46.20;;;;;;5063202;28;20450;-83
2022/05/17 03:16:19;;;;;;;5.13;4.77;;;25.80;46.20;;;;;;5063380;28;20447;-83
2022/05/17 03:18:48;;;;;;;4.97;4.60;;;25.70;46.20;;;;;;5063201;28;20414;-83
2022/05/17 03:21:16;;;;;;;4.93;4.53;;;25.70;46.20;;;;;;5063044;28;20973;-84
2022/05/17 03:23:46;;;;;;;5.13;4.53;;;25.70;46.30;;;;;;5063792;28;20425;-83
2022/05/17 03:26:14;;;;;;;4.97;4.57;;;25.70;46.20;;;;;;5059644;28;20409;-83
2022/05/17 03:28:45;;;;;;;4.40;4.10;;;25.70;46.20;;;;;;5058378;28;20468;-82
2022/05/17 03:31:13;;;;;;;4.67;4.30;;;25.70;46.10;;;;;;5061603;28;20565;-83
2022/05/17 03:33:41;;;;;;;4.67;4.23;;;25.70;46.20;;;;;;5061721;28;20470;-83
2022/05/17 03:36:09;;;;;;;4.23;4.00;;;25.70;46.20;;;;;;5061518;28;20425;-83
2022/05/17 03:38:38;;;;;;;4.60;4.30;;;25.60;46.20;;;;;;5062332;28;20441;-83
2022/05/17 03:41:07;;;;;;;4.60;4.30;;;25.60;46.30;;;;;;5061694;28;20466;-83
2022/05/17 03:43:35;;;;;;;4.03;3.73;;;25.60;46.20;;;;;;5057201;28;20462;-82
2022/05/17 03:46:04;;;;;;;4.87;4.40;;;25.60;46.20;;;;;;5057185;28;21005;-82
2022/05/17 03:48:32;;;;;;;4.30;4.00;;;25.50;46.20;;;;;;5061098;28;20478;-82
2022/05/17 03:51:00;;;;;;;5.30;4.27;;;25.50;46.20;;;;;;5061154;28;20853;-84
2022/05/17 03:53:28;;;;;;;4.17;3.87;;;25.40;46.20;;;;;;5061506;28;20450;-82
2022/05/17 03:55:56;;;;;;;4.30;4.00;;;25.50;46.30;;;;;;5061478;28;20475;-82
2022/05/17 03:58:26;;;;;;;4.77;4.37;;;25.40;46.20;;;;;;5061576;28;20501;-82
2022/05/17 04:00:54;;;;;;;4.40;4.00;;;25.40;46.30;;;;;;5061173;28;20445;-83
2022/05/17 04:03:22;;;;;;;4.60;4.33;;;25.40;46.30;;;;;;5056589;28;20425;-82
2022/05/17 04:05:51;;;;;;;4.47;4.13;;;25.40;46.20;;;;;;5061064;28;20452;-82
2022/05/17 04:08:19;;;;;;;4.10;3.90;;;25.40;46.20;;;;;;5060568;28;20445;-82
2022/05/17 04:10:47;;;;;;;4.60;4.30;;;25.40;46.10;;;;;;5060701;28;21032;-83
2022/05/17 04:13:15;;;;;;;4.10;3.80;;;25.40;46.20;;;;;;5063064;28;20421;-83
2022/05/17 04:15:45;;;;;;;3.97;3.73;;;25.40;46.20;;;;;;5063203;28;20652;-84
2022/05/17 04:18:13;;;;;;;4.90;4.60;;;25.40;46.10;;;;;;5063088;28;20431;-83
2022/05/17 04:20:41;;;;;;;5.07;4.67;;;25.40;46.00;;;;;;5058114;28;20480;-82
2022/05/17 04:23:09;;;;;;;4.73;4.43;;;25.40;46.00;;;;;;5061089;28;20450;-82
2022/05/17 04:25:37;;;;;;;4.27;3.97;;;25.40;46.00;;;;;;5061001;28;20448;-83
2022/05/17 04:28:06;;;;;;;4.30;4.00;;;25.40;45.90;;;;;;5062445;28;20451;-83
2022/05/17 04:30:34;;;;;;;4.63;4.23;;;25.40;45.80;;;;;;5057895;28;20440;-83
2022/05/17 04:33:04;;;;;;;4.83;4.43;;;25.40;45.90;;;;;;5058495;28;20421;-83
2022/05/17 04:35:32;;;;;;;4.03;3.77;;;25.50;45.90;;;;;;5061685;28;20481;-83
2022/05/17 04:38:00;;;;;;;4.53;4.23;;;25.50;45.80;;;;;;5053129;28;20450;-82
2022/05/17 04:40:29;;;;;;;4.53;4.20;;;25.50;45.70;;;;;;5057878;28;20463;-83
2022/05/17 04:42:57;;;;;;;4.47;4.07;;;25.50;45.70;;;;;;5049523;28;20445;-83
2022/05/17 04:45:26;;;;;;;4.30;4.10;;;25.50;45.60;;;;;;5054011;28;20904;-83
2022/05/17 04:47:54;;;;;;;4.40;4.00;;;25.50;45.60;;;;;;5060900;28;20465;-83
2022/05/17 04:50:26;;;;;;;4.50;3.97;;;25.50;45.70;;;;;;5055331;28;20532;-83
2022/05/17 04:52:54;;;;;;;5.77;4.77;;;25.50;45.60;;;;;;5061880;28;20446;-83
2022/05/17 04:55:25;;;;;;;4.00;3.80;;;25.50;45.60;;;;;;5053776;28;20453;-82
2022/05/17 04:57:54;;;;;;;4.20;3.90;;;25.50;45.50;;;;;;5061091;28;20472;-82
2022/05/17 05:00:23;;;;;;;3.90;3.60;;;25.40;45.30;;;;;;5049250;28;20517;-83
2022/05/17 05:02:51;;;;;;;4.93;4.43;;;25.40;45.60;;;;;;5052620;28;20433;-83
2022/05/17 05:05:19;;;;;;;4.47;4.10;;;25.40;45.50;;;;;;5060782;28;20443;-83
2022/05/17 05:07:49;;;;;;;4.30;4.07;;;25.40;45.40;;;;;;5043980;28;20450;-82
2022/05/17 05:10:17;;;;;;;5.37;4.47;;;25.40;45.50;;;;;;5046805;28;20495;-83
2022/05/17 05:12:45;;;;;;;4.00;3.80;;;25.40;45.40;;;;;;5049611;28;20457;-83
2022/05/17 05:15:14;;;;;;;4.60;4.20;;;25.40;45.40;;;;;;5061362;28;20935;-83
2022/05/17 05:17:42;;;;;;;4.50;4.10;;;25.50;45.40;;;;;;5060125;28;20497;-83
2022/05/17 05:20:12;;;;;;;4.03;3.80;;;25.50;45.40;;;;;;5044464;28;20492;-83
2022/05/17 05:22:40;;;;;;;4.83;4.27;;;25.50;45.40;;;;;;5045355;28;20449;-83
2022/05/17 05:25:13;;;;;;;4.40;4.10;;;25.50;45.40;;;;;;5044643;28;20470;-83
2022/05/17 05:27:41;;;;;;;5.00;4.50;;;25.50;45.40;;;;;;5057511;28;20449;-83
2022/05/17 05:30:11;;;;;;;4.40;4.00;;;25.50;45.40;;;;;;5059678;28;20461;-83
2022/05/17 05:32:39;;;;;;;4.33;4.00;;;25.40;45.10;;;;;;5060196;28;20421;-83
2022/05/17 05:35:08;;;;;;;4.40;4.10;;;25.50;45.30;;;;;;5048479;28;20422;-83
2022/05/17 05:37:37;;;;;;;8.17;4.50;;;25.50;45.20;;;;;;5048676;28;20514;-84
2022/05/17 05:40:06;;;;;;;4.70;4.40;;;25.50;45.30;;;;;;5062525;28;20473;-83
2022/05/17 05:42:36;;;;;;;4.83;4.53;;;25.50;45.10;;;;;;5064897;28;20442;-83
2022/05/17 05:45:04;;;;;;;4.10;3.90;;;25.50;45.10;;;;;;5063435;28;20477;-83
2022/05/17 05:47:33;;;;;;;4.20;3.90;;;25.50;45.10;;;;;;5059825;28;20454;-83
2022/05/17 05:50:01;;;;;;;4.63;4.20;;;25.50;45.10;;;;;;5064135;28;20456;-82
2022/05/17 05:52:29;;;;;;;4.60;4.20;;;25.50;45.00;;;;;;5067357;28;20474;-83
2022/05/17 05:54:57;;;;;;;6.40;3.60;;;25.50;44.90;;;;;;5067091;28;20451;-83
2022/05/17 05:57:25;;;;;;;4.70;4.30;;;25.60;45.00;;;;;;5063749;28;20425;-83
2022/05/17 05:59:55;;;;;;;4.27;3.97;;;25.60;44.80;;;;;;5062161;28;20520;-83
2022/05/17 06:02:23;;;;;;;4.70;3.67;;;25.60;44.80;;;;;;5063352;28;20434;-83
2022/05/17 06:04:54;;;;;;;4.30;4.00;;;25.60;44.80;;;;;;5056555;28;20531;-83
2022/05/17 06:07:22;;;;;;;4.67;3.80;;;25.70;44.70;;;;;;5062429;28;20456;-83
2022/05/17 06:09:50;;;;;;;4.07;3.80;;;25.70;44.80;;;;;;5061938;28;20505;-83
2022/05/17 06:12:19;;;;;;;4.20;3.90;;;25.70;44.60;;;;;;5062541;28;20432;-83
2022/05/17 06:14:47;;;;;;;4.20;3.90;;;25.70;44.70;;;;;;5062318;28;20428;-83
2022/05/17 06:17:27;;;;;;;4.47;4.17;;;25.70;44.70;;;;;;5061636;28;20456;-83
2022/05/17 06:20:03;;;;;;;3.90;3.70;;;25.80;44.60;;;;;;5061294;28;20469;-82
2022/05/17 06:22:31;;;;;;;3.93;3.73;;;25.80;44.50;;;;;;5057669;28;20450;-82
2022/05/17 06:24:59;;;;;;;5.10;3.60;;;25.80;44.50;;;;;;5041556;28;20422;-82
2022/05/17 06:27:28;;;;;;;4.53;4.10;;;25.90;44.40;;;;;;5042021;28;20501;-82
2022/05/17 06:29:56;;;;;;;3.90;3.70;;;25.90;44.30;;;;;;5041590;28;20481;-82
2022/05/17 06:32:25;;;;;;;4.13;3.83;;;26.00;44.30;;;;;;5041831;28;20454;-83
2022/05/17 06:34:53;;;;;;;4.10;3.80;;;26.00;44.40;;;;;;5041570;28;20481;-83
2022/05/17 06:37:21;;;;;;;3.43;3.23;;;26.10;44.30;;;;;;5041914;28;20453;-83
2022/05/17 06:39:50;;;;;;;4.20;3.43;;;26.20;44.30;;;;;;5050945;28;20502;-82
2022/05/17 06:42:18;;;;;;;3.87;3.57;;;26.20;44.20;;;;;;5061293;28;20439;-82
2022/05/17 06:44:47;;;;;;;3.80;3.60;;;26.20;44.00;;;;;;5062028;28;20425;-83
2022/05/17 06:47:21;;;;;;;4.30;4.00;;;26.30;44.00;;;;;;5062552;28;20442;-82
2022/05/17 06:49:55;;;;;;;3.70;3.50;;;26.30;44.10;;;;;;5061652;28;20449;-82
2022/05/17 06:52:26;;;;;;;3.90;3.50;;;26.40;43.90;;;;;;5061697;28;20473;-82
2022/05/17 06:54:55;;;;;;;4.13;3.83;;;26.50;43.80;;;;;;5062510;28;20435;-82
2022/05/17 06:57:23;;;;;;;4.20;3.90;;;26.50;43.80;;;;;;5057740;28;20479;-82
2022/05/17 06:59:52;;;;;;;4.20;3.80;;;26.60;43.70;;;;;;5061523;28;20458;-83
2022/05/17 07:02:20;;;;;;;3.87;3.57;;;26.60;43.70;;;;;;5061218;28;20446;-83
2022/05/17 07:04:49;;;;;;;3.60;3.33;;;26.70;43.80;;;;;;5061011;28;20452;-82
2022/05/17 07:07:24;;;;;;;3.60;3.30;;;26.70;43.80;;;;;;5060492;28;20459;-83
2022/05/17 07:15:20;;;;;;;4.03;3.70;;;26.90;43.60;;;;;;5060615;28;20481;-83
2022/05/17 07:17:49;;;;;;;3.80;3.50;;;27.00;43.60;;;;;;5060418;28;20417;-82
2022/05/17 07:20:23;;;;;;;4.00;3.40;;;27.00;43.50;;;;;;5060726;28;20486;-82
2022/05/17 07:22:53;;;;;;;3.87;3.57;;;27.10;43.60;;;;;;5060913;28;20447;-83
2022/05/17 07:25:24;;;;;;;3.63;3.43;;;27.20;43.50;;;;;;5060978;28;20425;-83
2022/05/17 07:27:52;;;;;;;3.47;3.30;;;27.30;43.50;;;;;;5060820;28;20429;-83
2022/05/17 07:30:22;;;;;;;4.47;4.07;;;27.30;43.60;;;;;;5057396;28;20485;-83
2022/05/17 07:32:50;;;;;;;3.57;3.37;;;27.40;43.60;;;;;;5060618;28;20417;-83
2022/05/17 07:35:19;;;;;;;3.53;3.23;;;27.40;43.60;;;;;;5061174;28;20425;-83
2022/05/17 07:37:47;;;;;;;4.70;3.57;;;27.50;43.70;;;;;;5061416;28;20427;-83
2022/05/17 07:40:17;;;;;;;3.70;3.50;;;27.60;43.70;;;;;;5061345;28;20472;-83
2022/05/17 07:42:46;;;;;;;3.77;3.10;;;27.60;43.80;;;;;;5062711;28;20451;-83
2022/05/17 07:45:15;;;;;;;3.03;2.83;;;27.70;43.80;;;;;;5061632;28;20454;-83
2022/05/17 07:47:43;;;;;;;3.50;3.30;;;27.90;43.70;;;;;;5058419;28;20438;-83
2022/05/17 07:50:11;;;;;;;3.50;3.20;;;28.00;43.60;;;;;;5063647;28;20445;-83
2022/05/17 07:52:40;;;;;;;3.10;3.00;;;28.10;43.60;;;;;;5065085;28;20421;-83
2022/05/17 07:55:10;;;;;;;3.33;3.07;;;28.20;43.60;;;;;;5065317;28;20915;-83
2022/05/17 07:57:40;;;;;;;3.40;3.20;;;28.30;43.60;;;;;;5065294;28;20447;-83
2022/05/17 08:00:08;;;;;;;3.40;2.93;;;28.50;43.50;;;;;;5063187;28;20442;-82
2022/05/17 08:02:37;;;;;;;3.37;3.07;;;28.70;43.40;;;;;;5055392;28;20482;-83
2022/05/17 08:05:06;;;;;;;3.67;3.23;;;28.80;43.30;;;;;;5059949;28;20447;-83
2022/05/17 08:07:34;;;;;;;3.10;2.90;;;28.90;43.00;;;;;;5061288;28;20433;-82
2022/05/17 08:10:03;;;;;;;3.37;3.17;;;29.00;43.00;;;;;;5063045;28;20466;-83
2022/05/17 08:12:31;;;;;;;3.00;2.80;;;29.10;43.00;;;;;;5061428;28;20421;-84
2022/05/17 08:15:00;;;;;;;3.73;3.43;;;29.30;42.90;;;;;;5060506;28;20421;-84
2022/05/17 08:17:29;;;;;;;3.40;3.10;;;29.50;42.90;;;;;;5060848;28;20425;-84
2022/05/17 08:19:57;;;;;;;3.30;3.00;;;29.50;42.70;;;;;;5053258;28;20470;-84
2022/05/17 08:22:25;;;;;;;3.40;3.20;;;29.60;42.70;;;;;;5059173;28;20417;-83
2022/05/17 08:27:39;;;;;;;2.90;2.80;;;29.70;42.70;;;;;;5060592;28;20443;-84
2022/05/17 08:30:12;;;;;;;2.97;2.77;;;29.90;42.90;;;;;;5059081;28;20558;-84
2022/05/17 08:35:37;;;;;;;2.70;2.60;;;30.20;42.70;;;;;;5053173;28;20488;-82
2022/05/17 08:38:05;;;;;;;2.77;2.57;;;30.30;42.70;;;;;;5060466;28;20456;-84
2022/05/17 08:40:34;;;;;;;3.40;3.03;;;30.50;42.80;;;;;;5058670;28;20458;-84
2022/05/17 08:43:11;;;;;;;2.73;2.63;;;30.70;42.60;;;;;;5058662;28;20518;-83
2022/05/17 08:45:51;;;;;;;2.57;2.47;;;30.80;42.30;;;;;;5056807;28;20520;-83
2022/05/17 08:48:19;;;;;;;3.27;3.07;;;30.80;42.20;;;;;;5055090;28;20489;-83
2022/05/17 08:50:47;;;;;;;2.50;2.30;;;30.90;42.10;;;;;;5055112;28;20517;-83
2022/05/17 08:53:18;;;;;;;2.60;2.50;;;31.00;42.10;;;;;;5059195;28;20446;-84
2022/05/17 08:55:46;;;;;;;3.20;2.90;;;31.10;42.10;;;;;;5057583;28;20450;-84
2022/05/17 08:58:17;;;;;;;2.87;2.70;;;31.30;42.30;;;;;;5061345;28;20458;-83
2022/05/17 09:00:48;;;;;;;3.27;3.00;;;31.30;42.00;;;;;;5061123;28;20458;-83
2022/05/17 09:03:29;;;;;;;2.70;2.60;;;31.30;41.80;;;;;;5059879;28;20490;-83
2022/05/17 09:06:01;;;;;;;3.33;2.80;;;31.40;42.00;;;;;;5045053;28;20448;-83
2022/05/17 09:08:35;;;;;;;2.40;2.30;;;31.40;41.90;;;;;;5056680;28;20468;-84
2022/05/17 09:11:07;;;;;;;2.80;2.60;;;31.60;42.00;;;;;;5062561;28;20494;-82
2022/05/17 09:13:43;;;;;;;2.50;2.40;;;31.80;41.80;;;;;;5052086;28;20459;-83
2022/05/17 09:16:35;;;;;;;2.90;2.70;;;31.90;41.70;;;;;;5056101;28;20986;-82
2022/05/17 09:19:03;;;;;;;3.13;2.83;;;32.00;41.50;;;;;;5055924;28;20466;-82
2022/05/17 09:21:32;;;;;;;3.00;2.77;;;32.10;41.60;;;;;;5064722;28;20960;-83
2022/05/17 09:24:03;;;;;;;2.00;1.90;;;32.30;41.40;;;;;;5052662;28;20508;-83
2022/05/17 09:26:31;;;;;;;2.60;2.40;;;32.40;41.40;;;;;;5064305;28;20442;-83
2022/05/17 09:29:01;;;;;;;3.03;2.30;;;32.50;41.20;;;;;;5059373;28;20477;-83
2022/05/17 09:31:31;;;;;;;2.53;2.13;;;32.70;41.30;;;;;;5058778;28;20532;-83
2022/05/17 09:34:05;;;;;;;2.83;2.63;;;33.00;41.20;;;;;;5051754;28;20449;-83
2022/05/17 09:36:41;;;;;;;2.33;2.23;;;33.20;40.90;;;;;;5061181;28;20447;-83
2022/05/17 09:39:10;;;;;;;2.90;2.70;;;33.40;40.70;;;;;;5066675;28;20464;-84
2022/05/17 09:41:39;;;;;;;2.53;2.40;;;33.70;40.50;;;;;;5063266;28;20458;-83
2022/05/17 09:44:28;;;;;;;2.40;2.20;;;33.70;40.10;;;;;;5059589;28;20549;-84
2022/05/17 09:47:00;;;;;;;2.63;2.43;;;33.90;40.10;;;;;;5055549;28;20457;-84
2022/05/17 09:52:38;;;;;;;2.27;2.07;;;34.30;39.90;;;;;;5040115;28;20498;-83
2022/05/17 09:55:13;;;;;;;2.37;2.23;;;34.50;39.40;;;;;;5049621;28;20450;-84
2022/05/17 09:57:52;;;;;;;3.13;2.03;;;34.50;39.30;;;;;;5059967;28;20441;-83
2022/05/17 10:00:23;;;;;;;2.20;2.10;;;34.50;39.00;;;;;;5062558;28;20470;-84
2022/05/17 10:02:52;;;;;;;2.03;1.93;;;34.40;39.00;;;;;;5062637;28;20445;-83
2022/05/17 10:05:24;;;;;;;2.00;1.90;;;34.30;39.00;;;;;;5059332;28;20481;-83
2022/05/17 10:07:55;;;;;;;3.73;2.33;;;34.50;39.30;;;;;;5062252;28;20462;-83
2022/05/17 10:10:29;;;;;;;2.00;1.90;;;34.50;39.20;;;;;;5062586;28;20474;-83
2022/05/17 10:13:01;;;;;;;2.00;1.90;;;34.60;38.90;;;;;;5062354;28;20538;-83
2022/05/17 10:15:29;;;;;;;2.00;1.80;;;34.60;38.90;;;;;;5062374;28;20453;-83
2022/05/17 10:18:00;;;;;;;3.87;1.93;;;34.50;38.90;;;;;;5062446;28;20512;-83
2022/05/17 10:20:32;;;;;;;3.23;2.00;;;34.50;39.30;;;;;;5063157;28;20479;-83
2022/05/17 10:23:01;;;;;;;2.30;2.20;;;34.60;39.00;;;;;;5058407;28;20461;-83
2022/05/17 10:25:32;;;;;;;2.40;2.20;;;34.80;39.00;;;;;;5062549;28;20443;-83
2022/05/17 10:28:03;;;;;;;1.80;1.70;;;34.90;38.70;;;;;;5062033;28;20478;-83
2022/05/17 10:30:42;;;;;;;1.97;1.87;;;35.00;38.70;;;;;;5062415;28;20474;-83
2022/05/17 10:33:12;;;;;;;2.00;1.90;;;35.00;38.20;;;;;;5061754;28;20476;-83
2022/05/17 10:35:43;;;;;;;1.87;1.83;;;34.90;38.20;;;;;;5062184;28;20438;-83
2022/05/17 10:38:12;;;;;;;1.87;1.80;;;34.80;38.40;;;;;;5057702;28;20454;-83
2022/05/17 10:40:44;;;;;;;2.40;2.03;;;34.80;38.40;;;;;;5061257;28;20467;-83
2022/05/17 10:43:15;;;;;;;2.07;1.97;;;34.80;38.40;;;;;;5061851;28;20435;-83
2022/05/17 10:45:45;;;;;;;2.10;2.00;;;34.80;38.30;;;;;;5062491;28;20450;-84
2022/05/17 10:48:18;;;;;;;2.03;1.93;;;35.10;38.40;;;;;;5062269;28;20473;-83
2022/05/17 10:50:51;;;;;;;3.73;1.90;;;35.20;37.90;;;;;;5062051;28;20466;-84
2022/05/17 10:53:31;;;;;;;2.50;1.80;;;35.10;37.80;;;;;;5061724;28;20509;-82
2022/05/17 10:56:07;;;;;;;1.87;1.77;;;35.40;38.20;;;;;;5065275;28;20449;-83
2022/05/17 10:58:43;;;;;;;2.23;2.10;;;35.70;37.50;;;;;;5065188;28;20469;-83
2022/05/17 11:01:14;;;;;;;2.17;2.07;;;36.10;37.00;;;;;;5063891;28;20469;-84
2022/05/17 11:04:12;;;;;;;1.60;1.47;;;36.10;36.90;;;;;;5063210;28;21004;-84
2022/05/17 11:06:43;;;;;;;2.07;1.90;;;36.60;37.10;;;;;;5063506;28;20549;-82
2022/05/17 11:09:14;;;;;;;1.60;1.50;;;37.00;36.40;;;;;;5064073;28;20458;-82
2022/05/17 11:11:53;;;;;;;2.00;1.80;;;37.40;36.00;;;;;;5058498;28;20451;-81
2022/05/17 11:14:23;;;;;;;1.63;1.53;;;37.60;35.80;;;;;;5064520;28;20442;-82
2022/05/17 11:16:57;;;;;;;1.47;1.40;;;38.00;35.60;;;;;;5065005;28;20449;-82
2022/05/17 11:19:28;;;;;;;1.40;1.40;;;39.00;34.40;;;;;;5064120;28;20443;-82
2022/05/17 11:22:00;;;;;;;1.40;1.30;;;40.10;33.00;;;;;;5062912;28;20469;-83
2022/05/17 11:24:45;;;;;;;1.73;1.50;;;41.20;32.00;;;;;;5061128;28;20504;-82
2022/05/17 11:27:24;;;;;;;1.40;1.30;;;42.10;30.80;;;;;;5060208;28;20479;-83
2022/05/17 11:30:18;;;;;;;1.50;1.40;;;43.00;29.80;;;;;;5060749;28;20466;-83
2022/05/17 11:33:13;;;;;;;2.13;1.80;;;43.50;28.40;;;;;;5050014;28;20557;-82
2022/05/17 11:35:49;;;;;;;1.23;1.23;;;42.30;29.30;;;;;;5062878;28;20453;-83
2022/05/17 11:38:37;;;;;;;1.37;1.10;;;42.90;29.50;;;;;;5062327;28;20434;-83
2022/05/17 11:41:07;;;;;;;1.37;1.30;;;43.80;28.90;;;;;;5059590;28;20462;-83
2022/05/17 11:43:50;;;;;;;1.40;1.30;;;44.90;27.90;;;;;;5060742;28;20489;-83
2022/05/17 11:46:40;;;;;;;1.20;1.20;;;43.50;27.60;;;;;;5058881;28;20461;-82
2022/05/17 11:49:46;;;;;;;1.03;1.03;;;42.40;28.80;;;;;;5062952;28;20426;-82
2022/05/17 11:52:36;;;;;;;1.20;1.20;;;43.40;29.10;;;;;;5061225;28;20418;-82
2022/05/17 11:55:07;;;;;;;0.80;0.80;;;44.70;28.00;;;;;;5059867;28;20434;-83
2022/05/17 11:58:05;;;;;;;1.00;1.00;;;45.20;26.70;;;;;;5061188;28;20437;-83
2022/05/17 12:00:44;;;;;;;1.27;1.13;;;44.60;27.30;;;;;;5061611;28;20457;-83
2022/05/17 12:03:54;;;;;;;1.20;1.20;;;43.90;27.10;;;;;;5059611;28;20568;-82
2022/05/17 12:06:43;;;;;;;1.20;1.20;;;42.40;28.40;;;;;;5049316;28;20963;-82
2022/05/17 12:09:13;;;;;;;1.10;1.10;;;41.90;30.30;;;;;;5062625;28;20438;-82
2022/05/17 12:11:49;;;;;;;1.30;1.20;;;41.90;28.70;;;;;;5063046;28;20438;-83
2022/05/17 12:14:21;;;;;;;1.73;1.60;;;41.00;29.50;;;;;;5062792;28;20450;-83
2022/05/17 12:16:50;;;;;;;1.43;1.33;;;40.20;30.60;;;;;;5062079;28;20418;-83
2022/05/17 12:19:26;;;;;;;1.10;1.10;;;39.80;31.90;;;;;;5056997;28;20447;-82
2022/05/17 12:21:58;;;;;;;1.33;1.33;;;41.30;30.70;;;;;;5059848;28;20822;-83
2022/05/17 12:24:48;;;;;;;1.30;1.30;;;42.70;29.30;;;;;;5060264;28;20468;-83
2022/05/17 12:27:22;;;;;;;1.10;1.10;;;43.00;27.80;;;;;;5062118;28;20462;-83
2022/05/17 12:32:47;;;;;;;1.20;1.20;;;41.00;29.50;;;;;;5059724;28;20432;-82
2022/05/17 12:35:15;;;;;;;1.43;1.33;;;40.70;31.00;;;;;;5053427;28;20466;-83
2022/05/17 12:37:44;;;;;;;4.77;1.07;;;41.70;30.00;;;;;;5052968;28;20530;-83
2022/05/17 12:43:06;;;;;;;1.00;1.00;;;43.10;28.80;;;;;;5032827;28;20509;-81
2022/05/17 12:45:38;;;;;;;1.40;1.30;;;43.50;28.40;;;;;;5033223;28;20453;-81
2022/05/17 12:48:15;;;;;;;1.30;1.20;;;43.50;28.00;;;;;;5033403;28;20470;-81
2022/05/17 12:50:45;;;;;;;1.90;1.00;;;43.50;28.00;;;;;;5049302;28;20496;-83
2022/05/17 12:53:17;;;;;;;1.10;1.10;;;43.10;27.90;;;;;;5053377;28;20427;-82
2022/05/17 12:56:01;;;;;;;1.40;1.30;;;42.40;28.60;;;;;;5053937;28;20453;-82
2022/05/17 12:58:30;;;;;;;0.90;0.90;;;42.50;29.30;;;;;;5054542;28;20442;-87
2022/05/17 13:00:59;;;;;;;1.00;1.00;;;42.80;28.90;;;;;;5076105;28;20453;-84
2022/05/17 13:03:29;;;;;;;2.40;1.20;;;43.00;28.60;;;;;;5079378;28;20465;-83
2022/05/17 13:05:58;;;;;;;1.47;1.07;;;43.30;29.20;;;;;;5040795;28;20514;-83
2022/05/17 13:08:32;;;;;;;5.77;1.00;;;43.10;28.30;;;;;;5040902;28;20439;-84
2022/05/17 13:11:02;;;;;;;1.10;1.10;;;43.10;28.70;;;;;;5046340;28;20466;-83
2022/05/17 13:13:32;;;;;;;2.83;1.27;;;43.00;28.50;;;;;;5060137;28;20438;-84
2022/05/17 13:16:02;;;;;;;1.20;1.10;;;42.30;28.60;;;;;;5059781;28;20470;-83
2022/05/17 13:18:37;;;;;;;2.40;1.20;;;41.50;29.20;;;;;;5049925;28;20447;-83
2022/05/17 13:21:05;;;;;;;1.10;1.10;;;40.90;29.80;;;;;;5039112;28;20475;-83
2022/05/17 13:23:33;;;;;;;1.40;1.30;;;40.40;30.20;;;;;;5041774;28;20495;-83
2022/05/17 13:26:02;;;;;;;1.00;1.00;;;40.30;31.00;;;;;;5051281;28;20450;-83